sensor_id;sensor_type;location;lat;lon;timestamp;pressure;altitude;pressure_sealevel;temperature;humidity
11223;BME280;5668;52.012;8.724;2023-02-18T00:01:13;100652.34;;;10.04;85.48
11223;BME280;5668;52.012;8.724;2023-02-18T00:03:41;100645.47;;;10.03;85.87
11223;BME280;5668;52.012;8.724;2023-02-18T00:06:11;100652.34;;;10.04;86.18
11223;BME280;5668;52.012;8.724;2023-02-18T00:08:38;100644.66;;;10.03;86.67
11223;BME280;5668;52.012;8.724;2023-02-18T00:11:05;100643.81;;;10.02;87.06
11223;BME280;5668;52.012;8.724;2023-02-18T00:13:34;100642.13;;;10.01;87.59
11223;BME280;5668;52.012;8.724;2023-02-18T00:16:02;100640.47;;;10.00;88.14
11223;BME280;5668;52.012;8.724;2023-02-18T00:18:30;100644.09;;;9.98;88.86
11223;BME280;5668;52.012;8.724;2023-02-18T00:20:57;100639.84;;;9.97;89.33
11223;BME280;5668;52.012;8.724;2023-02-18T00:23:25;100639.94;;;9.95;89.96
11223;BME280;5668;52.012;8.724;2023-02-18T00:25:59;100640.03;;;9.94;90.59
11223;BME280;5668;52.012;8.724;2023-02-18T00:28:27;100636.50;;;9.95;91.26
11223;BME280;5668;52.012;8.724;2023-02-18T00:30:56;100646.06;;;9.94;91.66
11223;BME280;5668;52.012;8.724;2023-02-18T00:33:23;100632.31;;;9.92;92.84
11223;BME280;5668;52.012;8.724;2023-02-18T00:35:50;100636.50;;;9.95;93.03
11223;BME280;5668;52.012;8.724;2023-02-18T00:38:17;100624.28;;;9.97;93.58
11223;BME280;5668;52.012;8.724;2023-02-18T00:40:46;100613.03;;;9.96;94.27
11223;BME280;5668;52.012;8.724;2023-02-18T00:43:13;100618.16;;;9.98;94.90
11223;BME280;5668;52.012;8.724;2023-02-18T00:45:40;100608.59;;;9.98;95.48
11223;BME280;5668;52.012;8.724;2023-02-18T00:48:09;100620.75;;;9.98;96.31
11223;BME280;5668;52.012;8.724;2023-02-18T00:50:36;100612.88;;;9.99;97.13
11223;BME280;5668;52.012;8.724;2023-02-18T00:53:04;100624.19;;;9.98;98.03
11223;BME280;5668;52.012;8.724;2023-02-18T00:55:31;100623.25;;;9.99;98.28
11223;BME280;5668;52.012;8.724;2023-02-18T00:57:58;100627.41;;;10.02;99.05
11223;BME280;5668;52.012;8.724;2023-02-18T01:00:25;100625.56;;;10.04;99.55
11223;BME280;5668;52.012;8.724;2023-02-18T01:02:52;100626.47;;;10.03;100.00
11223;BME280;5668;52.012;8.724;2023-02-18T01:05:21;100618.50;;;10.06;100.00
11223;BME280;5668;52.012;8.724;2023-02-18T01:07:48;100620.19;;;10.07;100.00
11223;BME280;5668;52.012;8.724;2023-02-18T01:10:16;100614.03;;;10.08;100.00
11223;BME280;5668;52.012;8.724;2023-02-18T01:12:44;100619.97;;;10.10;100.00
11223;BME280;5668;52.012;8.724;2023-02-18T01:15:14;100624.16;;;10.13;100.00
11223;BME280;5668;52.012;8.724;2023-02-18T01:17:42;100621.34;;;10.16;100.00
11223;BME280;5668;52.012;8.724;2023-02-18T01:20:11;100616.09;;;10.17;100.00
11223;BME280;5668;52.012;8.724;2023-02-18T01:22:41;100612.56;;;10.18;100.00
11223;BME280;5668;52.012;8.724;2023-02-18T01:25:09;100605.50;;;10.20;100.00
11223;BME280;5668;52.012;8.724;2023-02-18T01:27:37;100603.84;;;10.19;100.00
11223;BME280;5668;52.012;8.724;2023-02-18T01:30:07;100611.53;;;10.21;100.00
11223;BME280;5668;52.012;8.724;2023-02-18T01:32:34;100599.41;;;10.21;100.00
11223;BME280;5668;52.012;8.724;2023-02-18T01:35:02;100584.72;;;10.20;100.00
11223;BME280;5668;52.012;8.724;2023-02-18T01:37:29;100584.53;;;10.23;100.00
11223;BME280;5668;52.012;8.724;2023-02-18T01:39:58;100597.50;;;10.23;100.00
11223;BME280;5668;52.012;8.724;2023-02-18T01:42:27;100595.75;;;10.24;100.00
11223;BME280;5668;52.012;8.724;2023-02-18T01:48:05;100597.50;;;10.23;100.00
11223;BME280;5668;52.012;8.724;2023-02-18T01:50:37;100591.38;;;10.24;100.00
11223;BME280;5668;52.012;8.724;2023-02-18T01:53:06;100582.47;;;10.28;100.00
11223;BME280;5668;52.012;8.724;2023-02-18T01:55:36;100572.81;;;10.30;100.00
11223;BME280;5668;52.012;8.724;2023-02-18T01:58:04;100573.53;;;10.32;100.00
11223;BME280;5668;52.012;8.724;2023-02-18T02:00:31;100568.06;;;10.37;100.00
11223;BME280;5668;52.012;8.724;2023-02-18T02:02:59;100561.91;;;10.38;100.00
11223;BME280;5668;52.012;8.724;2023-02-18T02:05:30;100549.75;;;10.38;100.00
11223;BME280;5668;52.012;8.724;2023-02-18T02:07:58;100550.50;;;10.40;100.00
11223;BME280;5668;52.012;8.724;2023-02-18T02:10:36;100557.38;;;10.41;100.00
11223;BME280;5668;52.012;8.724;2023-02-18T02:13:13;100544.38;;;10.41;100.00
11223;BME280;5668;52.012;8.724;2023-02-18T02:15:46;100544.28;;;10.43;100.00
11223;BME280;5668;52.012;8.724;2023-02-18T02:18:28;100551.88;;;10.46;100.00
11223;BME280;5668;52.012;8.724;2023-02-18T02:21:31;100541.38;;;10.47;100.00
11223;BME280;5668;52.012;8.724;2023-02-18T02:24:28;100527.44;;;10.48;100.00
11223;BME280;5668;52.012;8.724;2023-02-18T02:27:26;100529.13;;;10.50;100.00
11223;BME280;5668;52.012;8.724;2023-02-18T02:30:34;100528.28;;;10.49;100.00
11223;BME280;5668;52.012;8.724;2023-02-18T02:33:36;100516.22;;;10.48;100.00
11223;BME280;5668;52.012;8.724;2023-02-18T02:36:12;100520.50;;;10.49;100.00
11223;BME280;5668;52.012;8.724;2023-02-18T02:38:48;100514.16;;;10.53;100.00
11223;BME280;5668;52.012;8.724;2023-02-18T02:41:27;100501.06;;;10.55;100.00
11223;BME280;5668;52.012;8.724;2023-02-18T02:44:07;100494.00;;;10.57;100.00
11223;BME280;5668;52.012;8.724;2023-02-18T02:46:39;100486.09;;;10.58;100.00
11223;BME280;5668;52.012;8.724;2023-02-18T02:49:17;100479.84;;;10.61;100.00
11223;BME280;5668;52.012;8.724;2023-02-18T02:51:51;100471.13;;;10.62;100.00
11223;BME280;5668;52.012;8.724;2023-02-18T02:54:23;100475.19;;;10.66;100.00
11223;BME280;5668;52.012;8.724;2023-02-18T02:57:00;100475.19;;;10.66;100.00
11223;BME280;5668;52.012;8.724;2023-02-18T02:59:30;100472.38;;;10.69;100.00
11223;BME280;5668;52.012;8.724;2023-02-18T03:02:09;100468.84;;;10.70;100.00
11223;BME280;5668;52.012;8.724;2023-02-18T03:05:01;100466.97;;;10.72;100.00
11223;BME280;5668;52.012;8.724;2023-02-18T03:07:58;100464.28;;;10.73;100.00
11223;BME280;5668;52.012;8.724;2023-02-18T03:10:39;100452.94;;;10.74;100.00
11223;BME280;5668;52.012;8.724;2023-02-18T03:13:15;100445.03;;;10.76;100.00
11223;BME280;5668;52.012;8.724;2023-02-18T03:15:51;100446.59;;;10.78;100.00
11223;BME280;5668;52.012;8.724;2023-02-18T03:18:24;100443.16;;;10.78;100.00
11223;BME280;5668;52.012;8.724;2023-02-18T03:21:00;100443.16;;;10.78;100.00
11223;BME280;5668;52.012;8.724;2023-02-18T03:23:36;100435.88;;;10.83;100.00
11223;BME280;5668;52.012;8.724;2023-02-18T03:26:05;100438.38;;;10.84;100.00
11223;BME280;5668;52.012;8.724;2023-02-18T03:28:35;100426.94;;;10.87;100.00
11223;BME280;5668;52.012;8.724;2023-02-18T03:31:07;100429.53;;;10.87;100.00
11223;BME280;5668;52.012;8.724;2023-02-18T03:33:39;100422.47;;;10.89;100.00
11223;BME280;5668;52.012;8.724;2023-02-18T03:36:09;100418.91;;;10.90;100.00
11223;BME280;5668;52.012;8.724;2023-02-18T03:38:43;100405.59;;;10.95;100.00
11223;BME280;5668;52.012;8.724;2023-02-18T03:41:11;100408.94;;;10.97;100.00
11223;BME280;5668;52.012;8.724;2023-02-18T03:43:47;100413.91;;;11.00;100.00
11223;BME280;5668;52.012;8.724;2023-02-18T03:46:15;100401.13;;;10.97;100.00
11223;BME280;5668;52.012;8.724;2023-02-18T03:48:43;100402.66;;;10.99;100.00
11223;BME280;5668;52.012;8.724;2023-02-18T03:51:10;100398.09;;;11.03;100.00
11223;BME280;5668;52.012;8.724;2023-02-18T03:53:39;100395.41;;;11.04;100.00
11223;BME280;5668;52.012;8.724;2023-02-18T03:56:06;100398.84;;;11.05;100.00
11223;BME280;5668;52.012;8.724;2023-02-18T03:58:33;100384.75;;;11.07;100.00
11223;BME280;5668;52.012;8.724;2023-02-18T04:01:01;100384.56;;;11.10;100.00
11223;BME280;5668;52.012;8.724;2023-02-18T04:03:28;100380.88;;;11.13;100.00
11223;BME280;5668;52.012;8.724;2023-02-18T04:05:55;100375.59;;;11.14;100.00
11223;BME280;5668;52.012;8.724;2023-02-18T04:08:23;100373.72;;;11.16;100.00
11223;BME280;5668;52.012;8.724;2023-02-18T04:10:51;100368.41;;;11.18;100.00
11223;BME280;5668;52.012;8.724;2023-02-18T04:13:19;100361.44;;;11.18;100.00
11223;BME280;5668;52.012;8.724;2023-02-18T04:15:48;100362.13;;;11.20;100.00
11223;BME280;5668;52.012;8.724;2023-02-18T04:18:16;100366.41;;;11.21;100.00
11223;BME280;5668;52.012;8.724;2023-02-18T04:20:44;100362.13;;;11.20;100.00
11223;BME280;5668;52.012;8.724;2023-02-18T04:23:12;100361.19;;;11.21;100.00
11223;BME280;5668;52.012;8.724;2023-02-18T04:25:39;100353.19;;;11.24;100.00
11223;BME280;5668;52.012;8.724;2023-02-18T04:28:09;100352.25;;;11.25;100.00
11223;BME280;5668;52.012;8.724;2023-02-18T04:30:38;100353.09;;;11.26;100.00
11223;BME280;5668;52.012;8.724;2023-02-18T04:33:05;100350.38;;;11.28;100.00
11223;BME280;5668;52.012;8.724;2023-02-18T04:35:32;100339.97;;;11.28;100.00
11223;BME280;5668;52.012;8.724;2023-02-18T04:38:01;100338.31;;;11.27;100.00
11223;BME280;5668;52.012;8.724;2023-02-18T04:40:29;100339.97;;;11.28;100.00
11223;BME280;5668;52.012;8.724;2023-02-18T04:42:56;100334.75;;;11.28;100.00
11223;BME280;5668;52.012;8.724;2023-02-18T04:45:26;100330.06;;;11.33;100.00
11223;BME280;5668;52.012;8.724;2023-02-18T04:47:54;100327.44;;;11.33;100.00
11223;BME280;5668;52.012;8.724;2023-02-18T04:50:21;100317.78;;;11.35;100.00
11223;BME280;5668;52.012;8.724;2023-02-18T04:52:49;100322.00;;;11.36;100.00
11223;BME280;5668;52.012;8.724;2023-02-18T04:55:16;100321.06;;;11.37;100.00
11223;BME280;5668;52.012;8.724;2023-02-18T04:57:43;100317.53;;;11.38;100.00
11223;BME280;5668;52.012;8.724;2023-02-18T05:00:15;100313.88;;;11.40;100.00
11223;BME280;5668;52.012;8.724;2023-02-18T05:02:44;100316.38;;;11.42;100.00
11223;BME280;5668;52.012;8.724;2023-02-18T05:05:12;100299.78;;;11.43;100.00
11223;BME280;5668;52.012;8.724;2023-02-18T05:07:40;100303.69;;;11.37;100.00
11223;BME280;5668;52.012;8.724;2023-02-18T05:10:09;100297.44;;;11.40;100.00
11223;BME280;5668;52.012;8.724;2023-02-18T05:12:37;100287.97;;;11.39;100.00
11223;BME280;5668;52.012;8.724;2023-02-18T05:15:05;100282.03;;;11.37;100.00
11223;BME280;5668;52.012;8.724;2023-02-18T05:17:33;100288.69;;;11.41;100.00
11223;BME280;5668;52.012;8.724;2023-02-18T05:20:02;100286.31;;;11.38;100.00
11223;BME280;5668;52.012;8.724;2023-02-18T05:22:29;100288.69;;;11.41;100.00
11223;BME280;5668;52.012;8.724;2023-02-18T05:24:57;100267.78;;;11.42;100.00
11223;BME280;5668;52.012;8.724;2023-02-18T05:27:24;100271.78;;;11.46;100.00
11223;BME280;5668;52.012;8.724;2023-02-18T05:29:51;100264.91;;;11.45;100.00
11223;BME280;5668;52.012;8.724;2023-02-18T05:32:18;100263.25;;;11.44;100.00
11223;BME280;5668;52.012;8.724;2023-02-18T05:34:46;100260.44;;;11.47;100.00
11223;BME280;5668;52.012;8.724;2023-02-18T05:37:14;100258.31;;;11.52;100.00
11223;BME280;5668;52.012;8.724;2023-02-18T05:39:43;100253.94;;;11.53;100.00
11223;BME280;5668;52.012;8.724;2023-02-18T05:42:11;100248.00;;;11.51;100.00
11223;BME280;5668;52.012;8.724;2023-02-18T05:44:38;100244.47;;;11.52;100.00
11223;BME280;5668;52.012;8.724;2023-02-18T05:47:08;100234.31;;;11.49;100.00
11223;BME280;5668;52.012;8.724;2023-02-18T05:49:36;100236.91;;;11.49;100.00
11223;BME280;5668;52.012;8.724;2023-02-18T05:52:04;100234.78;;;11.54;100.00
11223;BME280;5668;52.012;8.724;2023-02-18T05:54:33;100224.38;;;11.54;100.00
11223;BME280;5668;52.012;8.724;2023-02-18T05:57:01;100216.56;;;11.54;100.00
11223;BME280;5668;52.012;8.724;2023-02-18T05:59:29;100218.22;;;11.55;100.00
11223;BME280;5668;52.012;8.724;2023-02-18T06:01:56;100200.94;;;11.54;100.00
11223;BME280;5668;52.012;8.724;2023-02-18T06:04:24;100199.75;;;11.58;100.00
11223;BME280;5668;52.012;8.724;2023-02-18T06:06:51;100203.19;;;11.58;100.00
11223;BME280;5668;52.012;8.724;2023-02-18T06:09:18;100211.97;;;11.57;100.00
11223;BME280;5668;52.012;8.724;2023-02-18T06:11:47;100206.78;;;11.57;100.00
11223;BME280;5668;52.012;8.724;2023-02-18T06:14:14;100197.03;;;11.59;100.00
11223;BME280;5668;52.012;8.724;2023-02-18T06:16:41;100193.88;;;11.56;100.00
11223;BME280;5668;52.012;8.724;2023-02-18T06:19:09;100183.19;;;11.59;100.00
11223;BME280;5668;52.012;8.724;2023-02-18T06:21:36;100190.06;;;11.60;100.00
11223;BME280;5668;52.012;8.724;2023-02-18T06:24:03;100189.13;;;11.61;100.00
11223;BME280;5668;52.012;8.724;2023-02-18T06:26:31;100189.13;;;11.61;100.00
11223;BME280;5668;52.012;8.724;2023-02-18T06:29:00;100178.72;;;11.61;100.00
11223;BME280;5668;52.012;8.724;2023-02-18T06:31:27;100179.44;;;11.63;100.00
11223;BME280;5668;52.012;8.724;2023-02-18T06:33:55;100168.09;;;11.64;100.00
11223;BME280;5668;52.012;8.724;2023-02-18T06:36:22;100175.63;;;11.67;100.00
11223;BME280;5668;52.012;8.724;2023-02-18T06:38:49;100176.34;;;11.69;100.00
11223;BME280;5668;52.012;8.724;2023-02-18T06:41:16;100162.41;;;11.70;100.00
11223;BME280;5668;52.012;8.724;2023-02-18T06:43:43;100166.66;;;11.71;100.00
11223;BME280;5668;52.012;8.724;2023-02-18T06:46:12;100166.66;;;11.71;100.00
11223;BME280;5668;52.012;8.724;2023-02-18T06:48:39;100169.03;;;11.74;100.00
11223;BME280;5668;52.012;8.724;2023-02-18T06:51:06;100166.66;;;11.71;100.00
11223;BME280;5668;52.012;8.724;2023-02-18T06:53:34;100159.78;;;11.70;100.00
11223;BME280;5668;52.012;8.724;2023-02-18T06:56:01;100152.72;;;11.72;100.00
11223;BME280;5668;52.012;8.724;2023-02-18T06:58:28;100152.72;;;11.72;100.00
11223;BME280;5668;52.012;8.724;2023-02-18T07:00:55;100159.78;;;11.70;100.00
11223;BME280;5668;52.012;8.724;2023-02-18T07:03:24;100145.84;;;11.71;100.00
11223;BME280;5668;52.012;8.724;2023-02-18T07:05:52;100133.66;;;11.72;100.00
11223;BME280;5668;52.012;8.724;2023-02-18T07:08:19;100140.41;;;11.74;100.00
11223;BME280;5668;52.012;8.724;2023-02-18T07:10:47;100133.66;;;11.72;100.00
11223;BME280;5668;52.012;8.724;2023-02-18T07:13:15;100131.88;;;11.72;100.00
11223;BME280;5668;52.012;8.724;2023-02-18T07:15:42;100133.44;;;11.75;100.00
11223;BME280;5668;52.012;8.724;2023-02-18T07:18:09;100130.00;;;11.74;100.00
11223;BME280;5668;52.012;8.724;2023-02-18T07:20:38;100123.34;;;11.70;100.00
11223;BME280;5668;52.012;8.724;2023-02-18T07:23:05;100113.66;;;11.72;100.00
11223;BME280;5668;52.012;8.724;2023-02-18T07:25:32;100127.50;;;11.73;100.00
11223;BME280;5668;52.012;8.724;2023-02-18T07:28:00;100125.00;;;11.71;100.00
11223;BME280;5668;52.012;8.724;2023-02-18T07:30:27;100118.88;;;11.72;100.00
11223;BME280;5668;52.012;8.724;2023-02-18T07:32:54;100127.84;;;11.68;100.00
11223;BME280;5668;52.012;8.724;2023-02-18T07:37:43;100123.09;;;11.51;100.00
11223;BME280;5668;52.012;8.724;2023-02-18T07:40:14;100123.72;;;11.54;100.00
11223;BME280;5668;52.012;8.724;2023-02-18T07:42:42;100128.81;;;11.56;100.00
11223;BME280;5668;52.012;8.724;2023-02-18T07:45:10;100119.06;;;11.58;100.00
11223;BME280;5668;52.012;8.724;2023-02-18T07:47:37;100119.78;;;11.60;100.00
11223;BME280;5668;52.012;8.724;2023-02-18T07:50:09;100123.22;;;11.60;100.00
11223;BME280;5668;52.012;8.724;2023-02-18T07:52:37;100120.28;;;11.65;100.00
11223;BME280;5668;52.012;8.724;2023-02-18T07:55:17;100117.69;;;11.65;100.00
11223;BME280;5668;52.012;8.724;2023-02-18T07:57:49;100121.91;;;11.66;100.00
11223;BME280;5668;52.012;8.724;2023-02-18T08:00:32;100118.38;;;11.67;100.00
11223;BME280;5668;52.012;8.724;2023-02-18T08:03:00;100111.41;;;11.68;100.00
11223;BME280;5668;52.012;8.724;2023-02-18T08:05:28;100120.88;;;11.69;100.00
11223;BME280;5668;52.012;8.724;2023-02-18T08:07:55;100116.50;;;11.69;100.00
11223;BME280;5668;52.012;8.724;2023-02-18T08:10:24;100125.25;;;11.68;100.00
11223;BME280;5668;52.012;8.724;2023-02-18T08:12:51;100127.13;;;11.66;100.00
11223;BME280;5668;52.012;8.724;2023-02-18T08:15:18;100125.72;;;11.62;100.00
11223;BME280;5668;52.012;8.724;2023-02-18T08:17:45;100116.47;;;11.58;100.00
11223;BME280;5668;52.012;8.724;2023-02-18T08:20:13;100110.81;;;11.64;100.00
11223;BME280;5668;52.012;8.724;2023-02-18T08:22:41;100110.81;;;11.64;100.00
11223;BME280;5668;52.012;8.724;2023-02-18T08:25:08;100111.66;;;11.64;100.00
11223;BME280;5668;52.012;8.724;2023-02-18T08:27:36;100111.16;;;11.59;100.00
11223;BME280;5668;52.012;8.724;2023-02-18T08:30:05;100117.78;;;11.63;100.00
11223;BME280;5668;52.012;8.724;2023-02-18T08:32:32;100110.09;;;11.62;100.00
11223;BME280;5668;52.012;8.724;2023-02-18T08:34:59;100111.03;;;11.61;100.00
11223;BME280;5668;52.012;8.724;2023-02-18T08:37:26;100104.19;;;11.60;100.00
11223;BME280;5668;52.012;8.724;2023-02-18T08:39:54;100103.13;;;11.62;100.00
11223;BME280;5668;52.012;8.724;2023-02-18T08:42:21;100097.09;;;11.62;100.00
11223;BME280;5668;52.012;8.724;2023-02-18T08:44:50;100111.75;;;11.63;100.00
11223;BME280;5668;52.012;8.724;2023-02-18T08:47:17;100105.94;;;11.59;100.00
11223;BME280;5668;52.012;8.724;2023-02-18T08:49:44;100106.78;;;11.60;100.00
11223;BME280;5668;52.012;8.724;2023-02-18T08:52:11;100099.69;;;11.62;100.00
11223;BME280;5668;52.012;8.724;2023-02-18T08:54:39;100102.53;;;11.59;100.00
11223;BME280;5668;52.012;8.724;2023-02-18T08:57:06;100096.63;;;11.57;100.00
11223;BME280;5668;52.012;8.724;2023-02-18T08:59:33;100099.69;;;11.62;100.00
11223;BME280;5668;52.012;8.724;2023-02-18T09:02:02;100100.75;;;11.59;100.00
11223;BME280;5668;52.012;8.724;2023-02-18T09:04:29;100096.38;;;11.60;100.00
11223;BME280;5668;52.012;8.724;2023-02-18T09:06:56;100102.19;;;11.63;100.00
11223;BME280;5668;52.012;8.724;2023-02-18T09:09:23;100097.31;;;11.70;100.00
11223;BME280;5668;52.012;8.724;2023-02-18T09:11:51;100077.94;;;11.74;100.00
11223;BME280;5668;52.012;8.724;2023-02-18T09:14:18;100093.31;;;11.77;100.00
11223;BME280;5668;52.012;8.724;2023-02-18T09:16:49;100099.25;;;11.79;100.00
11223;BME280;5668;52.012;8.724;2023-02-18T09:19:18;100091.66;;;11.76;100.00
11223;BME280;5668;52.012;8.724;2023-02-18T09:21:45;100080.03;;;11.80;100.00
11223;BME280;5668;52.012;8.724;2023-02-18T09:24:12;100073.06;;;11.81;100.00
11223;BME280;5668;52.012;8.724;2023-02-18T09:26:40;100073.78;;;11.83;100.00
11223;BME280;5668;52.012;8.724;2023-02-18T09:29:08;100076.50;;;11.81;100.00
11223;BME280;5668;52.012;8.724;2023-02-18T09:31:35;100068.47;;;11.84;100.00
11223;BME280;5668;52.012;8.724;2023-02-18T09:34:03;100075.31;;;11.85;100.00
11223;BME280;5668;52.012;8.724;2023-02-18T09:36:32;100071.44;;;11.80;100.00
11223;BME280;5668;52.012;8.724;2023-02-18T09:39:00;100066.78;;;11.83;100.00
11223;BME280;5668;52.012;8.724;2023-02-18T09:41:31;100075.66;;;11.81;100.00
11223;BME280;5668;52.012;8.724;2023-02-18T09:44:08;100068.69;;;11.81;100.00
11223;BME280;5668;52.012;8.724;2023-02-18T09:46:40;100083.25;;;11.84;100.00
11223;BME280;5668;52.012;8.724;2023-02-18T09:49:14;100074.97;;;11.79;100.00
11223;BME280;5668;52.012;8.724;2023-02-18T09:51:43;100084.78;;;11.75;100.00
11223;BME280;5668;52.012;8.724;2023-02-18T09:54:13;100076.88;;;11.77;100.00
11223;BME280;5668;52.012;8.724;2023-02-18T09:56:42;100080.66;;;11.73;100.00
11223;BME280;5668;52.012;8.724;2023-02-18T09:59:14;100085.03;;;11.72;100.00
11223;BME280;5668;52.012;8.724;2023-02-18T10:01:43;100068.69;;;11.70;100.00
11223;BME280;5668;52.012;8.724;2023-02-18T10:04:14;100072.94;;;11.71;100.00
11223;BME280;5668;52.012;8.724;2023-02-18T10:06:45;100065.25;;;11.70;100.00
11223;BME280;5668;52.012;8.724;2023-02-18T10:09:18;100071.53;;;11.67;100.00
11223;BME280;5668;52.012;8.724;2023-02-18T10:11:49;100075.31;;;11.63;100.00
11223;BME280;5668;52.012;8.724;2023-02-18T10:14:18;100072.84;;;11.61;100.00
11223;BME280;5668;52.012;8.724;2023-02-18T10:16:47;100078.03;;;11.61;100.00
11223;BME280;5668;52.012;8.724;2023-02-18T10:19:22;100063.97;;;11.64;100.00
11223;BME280;5668;52.012;8.724;2023-02-18T10:21:52;100043.97;;;11.64;100.00
11223;BME280;5668;52.012;8.724;2023-02-18T10:24:28;100063.97;;;11.64;100.00
11223;BME280;5668;52.012;8.724;2023-02-18T10:26:55;100075.53;;;11.60;100.00
11223;BME280;5668;52.012;8.724;2023-02-18T10:29:24;100064.56;;;11.56;100.00
11223;BME280;5668;52.012;8.724;2023-02-18T10:31:55;100071.66;;;11.54;100.00
11223;BME280;5668;52.012;8.724;2023-02-18T10:34:35;100093.31;;;11.55;100.00
11223;BME280;5668;52.012;8.724;2023-02-18T10:40:20;100094.00;;;11.46;100.00
11223;BME280;5668;52.012;8.724;2023-02-18T10:43:01;100109.63;;;11.46;100.00
11223;BME280;5668;52.012;8.724;2023-02-18T10:45:36;100104.53;;;11.44;100.00
11223;BME280;5668;52.012;8.724;2023-02-18T10:48:23;100096.38;;;11.49;100.00
11223;BME280;5668;52.012;8.724;2023-02-18T10:50:54;100086.44;;;11.54;100.00
11223;BME280;5668;52.012;8.724;2023-02-18T10:53:29;100069.88;;;11.55;100.00
11223;BME280;5668;52.012;8.724;2023-02-18T10:55:57;100086.44;;;11.54;100.00
11223;BME280;5668;52.012;8.724;2023-02-18T10:58:29;100084.78;;;11.53;100.00
11223;BME280;5668;52.012;8.724;2023-02-18T11:00:58;100084.78;;;11.53;100.00
11223;BME280;5668;52.012;8.724;2023-02-18T11:03:39;100060.53;;;11.52;100.00
11223;BME280;5668;52.012;8.724;2023-02-18T11:06:16;100083.22;;;11.50;100.00
11223;BME280;5668;52.012;8.724;2023-02-18T11:08:49;100092.13;;;11.48;100.00
11223;BME280;5668;52.012;8.724;2023-02-18T11:11:23;100099.00;;;11.49;100.00
11223;BME280;5668;52.012;8.724;2023-02-18T11:13:53;100091.19;;;11.49;100.00
11223;BME280;5668;52.012;8.724;2023-02-18T11:16:21;100086.91;;;11.48;100.00
11223;BME280;5668;52.012;8.724;2023-02-18T11:18:49;100093.28;;;11.44;100.00
11223;BME280;5668;52.012;8.724;2023-02-18T11:21:29;100099.00;;;11.49;100.00
11223;BME280;5668;52.012;8.724;2023-02-18T11:24:06;100103.47;;;11.47;100.00
11223;BME280;5668;52.012;8.724;2023-02-18T11:26:36;100102.53;;;11.48;100.00
11223;BME280;5668;52.012;8.724;2023-02-18T11:29:08;100099.09;;;11.47;100.00
11223;BME280;5668;52.012;8.724;2023-02-18T11:31:42;100095.56;;;11.48;100.00
11223;BME280;5668;52.012;8.724;2023-02-18T11:34:16;100091.03;;;11.50;100.00
11223;BME280;5668;52.012;8.724;2023-02-18T11:36:44;100085.97;;;11.49;100.00
11223;BME280;5668;52.012;8.724;2023-02-18T11:39:19;100097.44;;;11.46;100.00
11223;BME280;5668;52.012;8.724;2023-02-18T11:41:52;100103.59;;;11.45;100.00
11223;BME280;5668;52.012;8.724;2023-02-18T11:44:22;100106.19;;;11.45;100.00
11223;BME280;5668;52.012;8.724;2023-02-18T11:46:58;100107.84;;;11.46;100.00
11223;BME280;5668;52.012;8.724;2023-02-18T11:49:26;100097.56;;;11.45;100.00
11223;BME280;5668;52.012;8.724;2023-02-18T11:51:56;100105.25;;;11.46;100.00
11223;BME280;5668;52.012;8.724;2023-02-18T11:54:30;100105.13;;;11.48;100.00
11223;BME280;5668;52.012;8.724;2023-02-18T11:57:02;100094.72;;;11.48;100.00
11223;BME280;5668;52.012;8.724;2023-02-18T11:59:33;100094.63;;;11.49;100.00
11223;BME280;5668;52.012;8.724;2023-02-18T12:02:11;100106.06;;;11.47;100.00
11223;BME280;5668;52.012;8.724;2023-02-18T12:04:49;100111.28;;;11.47;100.00
11223;BME280;5668;52.012;8.724;2023-02-18T12:07:21;100105.47;;;11.43;100.00
11223;BME280;5668;52.012;8.724;2023-02-18T12:09:55;100104.53;;;11.44;100.00
11223;BME280;5668;52.012;8.724;2023-02-18T12:12:26;100101.09;;;11.44;100.00
11223;BME280;5668;52.012;8.724;2023-02-18T12:14:54;100100.25;;;11.43;100.00
11223;BME280;5668;52.012;8.724;2023-02-18T12:17:33;100099.44;;;11.43;100.00
11223;BME280;5668;52.012;8.724;2023-02-18T12:20:24;100103.00;;;11.42;100.00
11223;BME280;5668;52.012;8.724;2023-02-18T12:22:59;100096.03;;;11.42;100.00
11223;BME280;5668;52.012;8.724;2023-02-18T12:25:38;100100.41;;;11.42;100.00
11223;BME280;5668;52.012;8.724;2023-02-18T12:28:22;100099.56;;;11.41;100.00
11223;BME280;5668;52.012;8.724;2023-02-18T12:31:18;100093.44;;;11.42;100.00
11223;BME280;5668;52.012;8.724;2023-02-18T12:34:05;100098.50;;;11.44;100.00
11223;BME280;5668;52.012;8.724;2023-02-18T12:36:53;100099.44;;;11.43;100.00
11223;BME280;5668;52.012;8.724;2023-02-18T12:39:35;100093.28;;;11.44;100.00
11223;BME280;5668;52.012;8.724;2023-02-18T12:42:25;100102.88;;;11.43;100.00
11223;BME280;5668;52.012;8.724;2023-02-18T12:45:12;100098.63;;;11.42;100.00
11223;BME280;5668;52.012;8.724;2023-02-18T12:48:00;100108.44;;;11.39;100.00
11223;BME280;5668;52.012;8.724;2023-02-18T12:51:02;100101.56;;;11.38;100.00
11223;BME280;5668;52.012;8.724;2023-02-18T12:54:01;100105.13;;;11.37;100.00
11223;BME280;5668;52.012;8.724;2023-02-18T12:56:53;100105.13;;;11.37;100.00
11223;BME280;5668;52.012;8.724;2023-02-18T12:59:55;100110.31;;;11.37;100.00
11223;BME280;5668;52.012;8.724;2023-02-18T13:02:41;100115.41;;;11.38;100.00
11223;BME280;5668;52.012;8.724;2023-02-18T13:05:22;100114.34;;;11.41;100.00
11223;BME280;5668;52.012;8.724;2023-02-18T13:08:02;100116.97;;;11.41;100.00
11223;BME280;5668;52.012;8.724;2023-02-18T13:11:02;100110.09;;;11.40;100.00
11223;BME280;5668;52.012;8.724;2023-02-18T13:13:33;100111.75;;;11.41;100.00
11223;BME280;5668;52.012;8.724;2023-02-18T13:16:09;100112.44;;;11.43;100.00
11223;BME280;5668;52.012;8.724;2023-02-18T13:18:39;100109.84;;;11.43;100.00
11223;BME280;5668;52.012;8.724;2023-02-18T13:21:11;100125.22;;;11.46;100.00